sensor_id;sensor_type;location;lat;lon;timestamp;pressure;altitude;pressure_sealevel;temperature;humidity
61113;BME280;47184;57.998;56.184;2022-10-16T00:01:27;100881.22;;;6.79;73.28
61113;BME280;47184;57.998;56.184;2022-10-16T00:03:55;100872.13;;;6.72;73.20
61113;BME280;47184;57.998;56.184;2022-10-16T00:06:22;100876.19;;;6.76;73.66
61113;BME280;47184;57.998;56.184;2022-10-16T00:08:49;100878.22;;;6.72;73.59
61113;BME280;47184;57.998;56.184;2022-10-16T00:11:21;100864.22;;;6.60;73.42
61113;BME280;47184;57.998;56.184;2022-10-16T00:13:49;100887.03;;;6.71;73.40
61113;BME280;47184;57.998;56.184;2022-10-16T00:16:16;100895.63;;;6.73;73.41
61113;BME280;47184;57.998;56.184;2022-10-16T00:18:43;100889.44;;;6.74;73.42
61113;BME280;47184;57.998;56.184;2022-10-16T00:21:15;100893.88;;;6.74;73.47
61113;BME280;47184;57.998;56.184;2022-10-16T00:24:04;100895.41;;;6.76;73.26
61113;BME280;47184;57.998;56.184;2022-10-16T00:26:35;100892.06;;;6.74;73.62
61113;BME280;47184;57.998;56.184;2022-10-16T00:29:02;100894.13;;;6.82;73.70
61113;BME280;47184;57.998;56.184;2022-10-16T00:31:28;100894.34;;;6.79;73.16
61113;BME280;47184;57.998;56.184;2022-10-16T00:33:55;100901.41;;;6.78;73.55
61113;BME280;47184;57.998;56.184;2022-10-16T00:36:23;100894.44;;;6.77;73.53
61113;BME280;47184;57.998;56.184;2022-10-16T00:38:51;100893.53;;;6.78;73.66
61113;BME280;47184;57.998;56.184;2022-10-16T00:41:21;100902.31;;;6.77;73.13
61113;BME280;47184;57.998;56.184;2022-10-16T00:43:51;100899.56;;;6.67;73.58
61113;BME280;47184;57.998;56.184;2022-10-16T00:46:27;100897.66;;;6.69;74.04
61113;BME280;47184;57.998;56.184;2022-10-16T00:49:03;100880.09;;;6.59;73.43
61113;BME280;47184;57.998;56.184;2022-10-16T00:51:42;100905.19;;;6.74;73.54
61113;BME280;47184;57.998;56.184;2022-10-16T00:54:12;100915.91;;;6.71;74.05
61113;BME280;47184;57.998;56.184;2022-10-16T00:56:39;100877.75;;;6.43;74.28
61113;BME280;47184;57.998;56.184;2022-10-16T00:59:15;100911.22;;;6.63;74.23
61113;BME280;47184;57.998;56.184;2022-10-16T01:01:42;100906.31;;;6.59;74.30
61113;BME280;47184;57.998;56.184;2022-10-16T01:04:08;100913.84;;;6.63;74.15
61113;BME280;47184;57.998;56.184;2022-10-16T01:09:45;100911.56;;;6.59;74.06
61113;BME280;47184;57.998;56.184;2022-10-16T01:15:27;100919.94;;;6.40;74.62
61113;BME280;47184;57.998;56.184;2022-10-16T01:18:08;100923.63;;;6.37;74.94
61113;BME280;47184;57.998;56.184;2022-10-16T01:26:16;100922.91;;;6.35;74.73
61113;BME280;47184;57.998;56.184;2022-10-16T01:31:35;100912.44;;;6.23;75.55
61113;BME280;47184;57.998;56.184;2022-10-16T01:34:12;100920.94;;;6.26;75.52
61113;BME280;47184;57.998;56.184;2022-10-16T01:36:45;100913.50;;;6.20;75.47
61113;BME280;47184;57.998;56.184;2022-10-16T01:39:14;100889.56;;;6.01;75.16
61113;BME280;47184;57.998;56.184;2022-10-16T01:41:49;100923.41;;;6.16;74.91
61113;BME280;47184;57.998;56.184;2022-10-16T01:44:33;100923.63;;;6.13;75.14
61113;BME280;47184;57.998;56.184;2022-10-16T01:47:02;100921.31;;;6.09;74.96
61113;BME280;47184;57.998;56.184;2022-10-16T01:49:34;100931.91;;;6.07;74.77
61113;BME280;47184;57.998;56.184;2022-10-16T01:52:08;100922.16;;;6.09;75.22
61113;BME280;47184;57.998;56.184;2022-10-16T01:54:37;100919.56;;;5.97;75.12
61113;BME280;47184;57.998;56.184;2022-10-16T01:57:06;100926.97;;;6.03;75.35
61113;BME280;47184;57.998;56.184;2022-10-16T01:59:40;100936.63;;;6.02;75.63
61113;BME280;47184;57.998;56.184;2022-10-16T02:02:10;100933.31;;;6.00;75.75
61113;BME280;47184;57.998;56.184;2022-10-16T02:04:46;100942.72;;;6.03;75.65
61113;BME280;47184;57.998;56.184;2022-10-16T02:07:14;100941.75;;;6.04;75.88
61113;BME280;47184;57.998;56.184;2022-10-16T02:09:41;100937.47;;;6.03;75.79
61113;BME280;47184;57.998;56.184;2022-10-16T02:14:48;100927.94;;;6.02;76.03
61113;BME280;47184;57.998;56.184;2022-10-16T02:17:16;100937.06;;;6.09;76.28
61113;BME280;47184;57.998;56.184;2022-10-16T02:19:44;100948.03;;;6.14;76.01
61113;BME280;47184;57.998;56.184;2022-10-16T02:22:18;100937.97;;;6.20;75.93
61113;BME280;47184;57.998;56.184;2022-10-16T02:24:59;100945.72;;;6.22;76.31
61113;BME280;47184;57.998;56.184;2022-10-16T02:27:38;100946.00;;;6.30;75.78
61113;BME280;47184;57.998;56.184;2022-10-16T02:30:34;100949.47;;;6.31;75.97
61113;BME280;47184;57.998;56.184;2022-10-16T02:33:05;100951.97;;;6.32;75.62
61113;BME280;47184;57.998;56.184;2022-10-16T02:35:33;100932.59;;;6.22;75.69
61113;BME280;47184;57.998;56.184;2022-10-16T02:38:00;100955.00;;;6.39;75.52
61113;BME280;47184;57.998;56.184;2022-10-16T02:40:27;100961.19;;;6.38;75.64
61113;BME280;47184;57.998;56.184;2022-10-16T02:42:54;100959.75;;;6.34;75.98
61113;BME280;47184;57.998;56.184;2022-10-16T02:45:22;100967.50;;;6.35;75.46
61113;BME280;47184;57.998;56.184;2022-10-16T02:47:49;100961.06;;;6.39;76.04
61113;BME280;47184;57.998;56.184;2022-10-16T02:50:15;100926.84;;;6.17;75.50
61113;BME280;47184;57.998;56.184;2022-10-16T02:52:41;100962.97;;;6.37;75.49
61113;BME280;47184;57.998;56.184;2022-10-16T02:55:08;100942.97;;;6.24;75.83
61113;BME280;47184;57.998;56.184;2022-10-16T02:57:34;100969.41;;;6.33;75.85
61113;BME280;47184;57.998;56.184;2022-10-16T03:00:04;100980.09;;;6.30;75.49
61113;BME280;47184;57.998;56.184;2022-10-16T03:02:30;100969.94;;;6.26;75.45
61113;BME280;47184;57.998;56.184;2022-10-16T03:04:56;100979.16;;;6.31;75.76
61113;BME280;47184;57.998;56.184;2022-10-16T03:07:22;100978.66;;;6.26;75.38
61113;BME280;47184;57.998;56.184;2022-10-16T03:09:48;100973.41;;;6.26;75.77
61113;BME280;47184;57.998;56.184;2022-10-16T03:12:14;100961.66;;;6.19;75.45
61113;BME280;47184;57.998;56.184;2022-10-16T03:14:40;100993.94;;;6.32;75.63
61113;BME280;47184;57.998;56.184;2022-10-16T03:17:07;100975.91;;;6.28;75.59
61113;BME280;47184;57.998;56.184;2022-10-16T03:19:33;100987.53;;;6.36;75.69
61113;BME280;47184;57.998;56.184;2022-10-16T03:21:59;100984.19;;;6.34;75.40
61113;BME280;47184;57.998;56.184;2022-10-16T03:24:25;100992.75;;;6.36;75.19
61113;BME280;47184;57.998;56.184;2022-10-16T03:26:51;100999.59;;;6.39;75.57
61113;BME280;47184;57.998;56.184;2022-10-16T03:29:17;100991.59;;;6.40;75.47
61113;BME280;47184;57.998;56.184;2022-10-16T03:31:43;100982.50;;;6.33;74.82
61113;BME280;47184;57.998;56.184;2022-10-16T03:34:09;100997.91;;;6.38;74.80
61113;BME280;47184;57.998;56.184;2022-10-16T03:36:35;100997.91;;;6.38;74.75
61113;BME280;47184;57.998;56.184;2022-10-16T03:39:02;101002.00;;;6.42;74.70
61113;BME280;47184;57.998;56.184;2022-10-16T03:41:28;100967.34;;;6.13;74.78
61113;BME280;47184;57.998;56.184;2022-10-16T03:43:54;100996.88;;;6.28;74.87
61113;BME280;47184;57.998;56.184;2022-10-16T03:46:20;100997.63;;;6.30;74.68
61113;BME280;47184;57.998;56.184;2022-10-16T03:48:46;101011.13;;;6.36;74.66
61113;BME280;47184;57.998;56.184;2022-10-16T03:51:12;101006.97;;;6.34;74.86
61113;BME280;47184;57.998;56.184;2022-10-16T03:53:38;100997.84;;;6.27;74.56
61113;BME280;47184;57.998;56.184;2022-10-16T03:56:04;100995.34;;;6.25;74.12
61113;BME280;47184;57.998;56.184;2022-10-16T03:58:31;101012.81;;;6.37;74.70
61113;BME280;47184;57.998;56.184;2022-10-16T04:00:57;101016.66;;;6.44;74.59
61113;BME280;47184;57.998;56.184;2022-10-16T04:03:23;101018.75;;;6.52;74.73
61113;BME280;47184;57.998;56.184;2022-10-16T04:05:49;100986.69;;;6.36;74.06
61113;BME280;47184;57.998;56.184;2022-10-16T04:08:16;101014.88;;;6.58;74.01
61113;BME280;47184;57.998;56.184;2022-10-16T04:10:43;101016.06;;;6.65;74.45
61113;BME280;47184;57.998;56.184;2022-10-16T04:13:09;101017.03;;;6.64;74.25
61113;BME280;47184;57.998;56.184;2022-10-16T04:15:36;101013.78;;;6.60;74.03
61113;BME280;47184;57.998;56.184;2022-10-16T04:18:04;101032.34;;;6.70;74.05
61113;BME280;47184;57.998;56.184;2022-10-16T04:20:30;101036.66;;;6.71;74.05
61113;BME280;47184;57.998;56.184;2022-10-16T04:22:56;101027.59;;;6.75;74.07
61113;BME280;47184;57.998;56.184;2022-10-16T04:25:22;101027.06;;;6.83;73.84
61113;BME280;47184;57.998;56.184;2022-10-16T04:27:48;101007.03;;;6.69;73.37
61113;BME280;47184;57.998;56.184;2022-10-16T04:30:14;101037.00;;;6.90;73.86
61113;BME280;47184;57.998;56.184;2022-10-16T04:32:41;101039.28;;;6.95;73.24
61113;BME280;47184;57.998;56.184;2022-10-16T04:35:08;101032.59;;;6.91;73.44
61113;BME280;47184;57.998;56.184;2022-10-16T04:37:34;101041.25;;;7.04;73.14
61113;BME280;47184;57.998;56.184;2022-10-16T04:40:00;101046.16;;;7.09;73.24
61113;BME280;47184;57.998;56.184;2022-10-16T04:42:26;101037.00;;;7.14;73.08
61113;BME280;47184;57.998;56.184;2022-10-16T04:44:52;101024.44;;;7.07;72.68
61113;BME280;47184;57.998;56.184;2022-10-16T04:47:20;101054.84;;;7.33;72.68
61113;BME280;47184;57.998;56.184;2022-10-16T04:49:46;101054.41;;;7.39;72.53
61113;BME280;47184;57.998;56.184;2022-10-16T04:52:13;101044.94;;;7.37;72.02
61113;BME280;47184;57.998;56.184;2022-10-16T04:54:39;101049.03;;;7.41;71.80
61113;BME280;47184;57.998;56.184;2022-10-16T04:57:05;101061.59;;;7.49;71.86
61113;BME280;47184;57.998;56.184;2022-10-16T04:59:31;101046.63;;;7.38;71.75
61113;BME280;47184;57.998;56.184;2022-10-16T05:01:57;101059.50;;;7.65;71.62
61113;BME280;47184;57.998;56.184;2022-10-16T05:04:23;101052.31;;;7.67;71.67
61113;BME280;47184;57.998;56.184;2022-10-16T05:06:49;101063.44;;;7.70;71.04
61113;BME280;47184;57.998;56.184;2022-10-16T05:09:15;101037.22;;;7.47;71.27
61113;BME280;47184;57.998;56.184;2022-10-16T05:11:42;101066.63;;;7.52;71.41
61113;BME280;47184;57.998;56.184;2022-10-16T05:14:08;101062.03;;;7.42;71.21
61113;BME280;47184;57.998;56.184;2022-10-16T05:16:34;101057.97;;;7.38;71.41
61113;BME280;47184;57.998;56.184;2022-10-16T05:19:00;101073.09;;;7.59;70.56
61113;BME280;47184;57.998;56.184;2022-10-16T05:21:26;101075.00;;;7.57;70.69
61113;BME280;47184;57.998;56.184;2022-10-16T05:23:53;101070.56;;;7.57;70.47
61113;BME280;47184;57.998;56.184;2022-10-16T05:26:20;101064.13;;;7.61;70.31
61113;BME280;47184;57.998;56.184;2022-10-16T05:28:48;101068.47;;;7.74;69.74
61113;BME280;47184;57.998;56.184;2022-10-16T05:31:15;101068.84;;;7.91;69.37
61113;BME280;47184;57.998;56.184;2022-10-16T05:33:41;101037.69;;;8.09;69.38
61113;BME280;47184;57.998;56.184;2022-10-16T05:36:09;101066.25;;;8.36;68.89
61113;BME280;47184;57.998;56.184;2022-10-16T05:38:36;101072.38;;;8.48;68.52
61113;BME280;47184;57.998;56.184;2022-10-16T05:41:04;101075.84;;;8.71;67.65
61113;BME280;47184;57.998;56.184;2022-10-16T05:43:30;101078.75;;;9.00;67.17
61113;BME280;47184;57.998;56.184;2022-10-16T05:46:04;101087.53;;;9.54;66.73
61113;BME280;47184;57.998;56.184;2022-10-16T05:48:33;101096.38;;;9.85;66.25
61113;BME280;47184;57.998;56.184;2022-10-16T05:51:09;101086.47;;;9.98;65.35
61113;BME280;47184;57.998;56.184;2022-10-16T05:53:37;101076.72;;;9.99;64.91
61113;BME280;47184;57.998;56.184;2022-10-16T05:56:04;101073.19;;;10.09;64.89
61113;BME280;47184;57.998;56.184;2022-10-16T05:58:33;101090.88;;;10.18;64.03
61113;BME280;47184;57.998;56.184;2022-10-16T06:01:05;101080.50;;;9.96;63.79
61113;BME280;47184;57.998;56.184;2022-10-16T06:03:33;101042.41;;;9.47;63.53
61113;BME280;47184;57.998;56.184;2022-10-16T06:06:11;101095.94;;;9.80;63.94
61113;BME280;47184;57.998;56.184;2022-10-16T06:08:38;101075.19;;;10.48;62.60
61113;BME280;47184;57.998;56.184;2022-10-16T06:11:06;101080.50;;;11.56;60.63
61113;BME280;47184;57.998;56.184;2022-10-16T06:13:33;101080.94;;;12.82;57.34
61113;BME280;47184;57.998;56.184;2022-10-16T06:16:00;101084.63;;;13.53;54.70
61113;BME280;47184;57.998;56.184;2022-10-16T06:18:27;101079.66;;;14.28;52.72
61113;BME280;47184;57.998;56.184;2022-10-16T06:20:54;101084.63;;;14.57;52.34
61113;BME280;47184;57.998;56.184;2022-10-16T06:23:21;101086.84;;;15.53;51.16
61113;BME280;47184;57.998;56.184;2022-10-16T06:25:47;101090.84;;;15.81;48.74
61113;BME280;47184;57.998;56.184;2022-10-16T06:28:14;101082.50;;;15.44;48.77
61113;BME280;47184;57.998;56.184;2022-10-16T06:30:41;101092.63;;;15.16;49.07
61113;BME280;47184;57.998;56.184;2022-10-16T06:33:08;101087.28;;;14.57;48.55
61113;BME280;47184;57.998;56.184;2022-10-16T06:35:34;101106.06;;;14.03;49.77
61113;BME280;47184;57.998;56.184;2022-10-16T06:38:00;101108.31;;;13.90;50.77
61113;BME280;47184;57.998;56.184;2022-10-16T06:40:27;101094.97;;;14.08;50.86
61113;BME280;47184;57.998;56.184;2022-10-16T06:42:55;101095.34;;;14.13;51.01
61113;BME280;47184;57.998;56.184;2022-10-16T06:45:21;101099.66;;;14.14;50.17
61113;BME280;47184;57.998;56.184;2022-10-16T06:47:47;101091.00;;;14.72;49.57
61113;BME280;47184;57.998;56.184;2022-10-16T06:50:13;101082.03;;;15.81;47.57
61113;BME280;47184;57.998;56.184;2022-10-16T06:52:39;101091.50;;;17.18;44.90
61113;BME280;47184;57.998;56.184;2022-10-16T06:55:05;101080.38;;;18.27;43.60
61113;BME280;47184;57.998;56.184;2022-10-16T06:57:31;101090.81;;;19.03;40.66
61113;BME280;47184;57.998;56.184;2022-10-16T06:59:58;101065.69;;;19.25;39.55
61113;BME280;47184;57.998;56.184;2022-10-16T07:02:24;101082.00;;;17.84;40.28
61113;BME280;47184;57.998;56.184;2022-10-16T07:04:50;101090.91;;;16.76;42.00
61113;BME280;47184;57.998;56.184;2022-10-16T07:07:16;101090.16;;;15.88;43.80
61113;BME280;47184;57.998;56.184;2022-10-16T07:09:42;101083.38;;;16.41;43.24
61113;BME280;47184;57.998;56.184;2022-10-16T07:12:08;101089.94;;;16.61;42.60
61113;BME280;47184;57.998;56.184;2022-10-16T07:14:34;101088.19;;;17.39;41.82
61113;BME280;47184;57.998;56.184;2022-10-16T07:17:00;101098.22;;;17.82;40.00
61113;BME280;47184;57.998;56.184;2022-10-16T07:19:26;101078.81;;;18.18;38.97
61113;BME280;47184;57.998;56.184;2022-10-16T07:21:52;101081.63;;;18.91;37.24
61113;BME280;47184;57.998;56.184;2022-10-16T07:24:18;101082.78;;;19.95;36.69
61113;BME280;47184;57.998;56.184;2022-10-16T07:26:45;101088.50;;;19.86;36.12
61113;BME280;47184;57.998;56.184;2022-10-16T07:29:17;101088.56;;;18.41;37.08
61113;BME280;47184;57.998;56.184;2022-10-16T07:31:44;101079.41;;;16.76;37.73
61113;BME280;47184;57.998;56.184;2022-10-16T07:34:11;101090.31;;;15.37;39.16
61113;BME280;47184;57.998;56.184;2022-10-16T07:36:37;101095.81;;;14.34;40.99
61113;BME280;47184;57.998;56.184;2022-10-16T07:39:04;101085.00;;;14.36;42.22
61113;BME280;47184;57.998;56.184;2022-10-16T07:41:30;101070.38;;;15.82;40.85
61113;BME280;47184;57.998;56.184;2022-10-16T07:43:58;101085.50;;;16.93;37.49
61113;BME280;47184;57.998;56.184;2022-10-16T07:46:26;101093.84;;;17.21;36.49
61113;BME280;47184;57.998;56.184;2022-10-16T07:48:53;101093.69;;;17.14;36.27
61113;BME280;47184;57.998;56.184;2022-10-16T07:51:21;101069.63;;;17.45;35.90
61113;BME280;47184;57.998;56.184;2022-10-16T07:53:48;101087.56;;;17.37;35.44
61113;BME280;47184;57.998;56.184;2022-10-16T07:56:17;101080.66;;;16.09;36.92
61113;BME280;47184;57.998;56.184;2022-10-16T07:58:44;101089.22;;;14.89;38.32
61113;BME280;47184;57.998;56.184;2022-10-16T08:01:12;101082.81;;;13.79;39.27
61113;BME280;47184;57.998;56.184;2022-10-16T08:03:43;101091.19;;;14.10;40.22
61113;BME280;47184;57.998;56.184;2022-10-16T08:06:09;101080.09;;;14.15;40.66
61113;BME280;47184;57.998;56.184;2022-10-16T08:08:35;101089.09;;;14.22;41.12
61113;BME280;47184;57.998;56.184;2022-10-16T08:11:01;101087.97;;;15.26;40.27
61113;BME280;47184;57.998;56.184;2022-10-16T08:13:30;101095.09;;;17.02;38.48
61113;BME280;47184;57.998;56.184;2022-10-16T08:15:56;101064.25;;;18.06;36.81
61113;BME280;47184;57.998;56.184;2022-10-16T08:18:23;101091.53;;;18.16;35.95
61113;BME280;47184;57.998;56.184;2022-10-16T08:20:58;101092.28;;;17.72;35.88
61113;BME280;47184;57.998;56.184;2022-10-16T08:23:24;101097.81;;;17.48;35.73
61113;BME280;47184;57.998;56.184;2022-10-16T08:25:52;101075.13;;;16.98;36.59
61113;BME280;47184;57.998;56.184;2022-10-16T08:28:19;101082.13;;;16.59;37.36
61113;BME280;47184;57.998;56.184;2022-10-16T08:30:46;101082.09;;;17.53;37.35
61113;BME280;47184;57.998;56.184;2022-10-16T08:33:12;101090.13;;;18.79;35.45
61113;BME280;47184;57.998;56.184;2022-10-16T08:35:38;101084.88;;;19.08;34.33
61113;BME280;47184;57.998;56.184;2022-10-16T08:38:05;101078.84;;;19.42;34.11
61113;BME280;47184;57.998;56.184;2022-10-16T08:40:32;101086.06;;;20.60;33.04
61113;BME280;47184;57.998;56.184;2022-10-16T08:51:25;101085.06;;;22.73;29.99
61113;BME280;47184;57.998;56.184;2022-10-16T08:53:57;101082.50;;;22.40;30.32
61113;BME280;47184;57.998;56.184;2022-10-16T08:56:25;101078.69;;;22.68;30.03
61113;BME280;47184;57.998;56.184;2022-10-16T08:58:52;101058.69;;;22.89;28.67
61113;BME280;47184;57.998;56.184;2022-10-16T09:01:21;101051.47;;;22.83;28.48
61113;BME280;47184;57.998;56.184;2022-10-16T09:06:46;101080.91;;;22.06;27.98
61113;BME280;47184;57.998;56.184;2022-10-16T09:09:43;101088.59;;;21.43;28.90
61113;BME280;47184;57.998;56.184;2022-10-16T09:12:24;101084.84;;;22.10;28.63
61113;BME280;47184;57.998;56.184;2022-10-16T09:15:21;101082.38;;;22.02;28.25
61113;BME280;47184;57.998;56.184;2022-10-16T09:18:12;101067.28;;;22.21;28.54
61113;BME280;47184;57.998;56.184;2022-10-16T09:21:05;101087.53;;;23.20;27.77
61113;BME280;47184;57.998;56.184;2022-10-16T09:23:35;101095.84;;;23.75;26.67
61113;BME280;47184;57.998;56.184;2022-10-16T09:26:02;101093.28;;;23.55;26.70
61113;BME280;47184;57.998;56.184;2022-10-16T09:28:29;101093.38;;;23.73;26.46
61113;BME280;47184;57.998;56.184;2022-10-16T09:30:56;101094.94;;;22.99;26.42
61113;BME280;47184;57.998;56.184;2022-10-16T09:33:29;101087.56;;;21.84;27.64
61113;BME280;47184;57.998;56.184;2022-10-16T09:35:59;101090.03;;;22.18;28.14
61113;BME280;47184;57.998;56.184;2022-10-16T09:38:33;101094.00;;;23.12;27.35
61113;BME280;47184;57.998;56.184;2022-10-16T09:41:21;101089.09;;;23.59;26.40
61113;BME280;47184;57.998;56.184;2022-10-16T09:43:56;101090.97;;;23.65;25.90
61113;BME280;47184;57.998;56.184;2022-10-16T09:46:36;101090.25;;;23.20;26.21
61113;BME280;47184;57.998;56.184;2022-10-16T09:49:24;101100.19;;;21.90;27.21
61113;BME280;47184;57.998;56.184;2022-10-16T09:52:02;101099.09;;;20.28;28.28
61113;BME280;47184;57.998;56.184;2022-10-16T09:54:29;101100.38;;;18.76;30.09
61113;BME280;47184;57.998;56.184;2022-10-16T09:57:05;101103.56;;;17.82;31.48
61113;BME280;47184;57.998;56.184;2022-10-16T09:59:31;101100.34;;;17.18;32.61
61113;BME280;47184;57.998;56.184;2022-10-16T10:02:02;101097.31;;;17.90;32.72
61113;BME280;47184;57.998;56.184;2022-10-16T10:04:40;101096.81;;;19.26;31.78
61113;BME280;47184;57.998;56.184;2022-10-16T10:07:18;101070.69;;;20.06;30.68
61113;BME280;47184;57.998;56.184;2022-10-16T10:09:46;101100.66;;;20.92;29.47
61113;BME280;47184;57.998;56.184;2022-10-16T10:12:28;101104.66;;;21.30;29.15
61113;BME280;47184;57.998;56.184;2022-10-16T10:14:56;101102.88;;;21.83;28.80
61113;BME280;47184;57.998;56.184;2022-10-16T10:17:27;101075.19;;;21.56;28.68
61113;BME280;47184;57.998;56.184;2022-10-16T10:19:58;101109.66;;;21.33;28.85
61113;BME280;47184;57.998;56.184;2022-10-16T10:30:22;101108.03;;;22.18;27.73
61113;BME280;47184;57.998;56.184;2022-10-16T10:33:24;101107.41;;;21.63;28.54
61113;BME280;47184;57.998;56.184;2022-10-16T10:36:29;101095.53;;;21.04;29.10
61113;BME280;47184;57.998;56.184;2022-10-16T10:46:54;101102.31;;;20.87;29.47
61113;BME280;47184;57.998;56.184;2022-10-16T10:58:11;101106.00;;;18.51;31.96
61113;BME280;47184;57.998;56.184;2022-10-16T11:01:01;101109.72;;;18.21;32.71
61113;BME280;47184;57.998;56.184;2022-10-16T11:06:57;101088.00;;;17.63;33.82
61113;BME280;47184;57.998;56.184;2022-10-16T11:09:28;101115.56;;;17.64;33.56
61113;BME280;47184;57.998;56.184;2022-10-16T11:12:12;101085.28;;;17.02;34.10
61113;BME280;47184;57.998;56.184;2022-10-16T11:17:30;101095.16;;;15.91;35.73
61113;BME280;47184;57.998;56.184;2022-10-16T11:20:12;101076.34;;;15.27;36.65
61113;BME280;47184;57.998;56.184;2022-10-16T11:22:55;101101.56;;;14.90;37.65
61113;BME280;47184;57.998;56.184;2022-10-16T11:25:23;101104.44;;;14.63;38.32
61113;BME280;47184;57.998;56.184;2022-10-16T11:28:17;101108.25;;;14.34;38.86
61113;BME280;47184;57.998;56.184;2022-10-16T11:31:13;101107.56;;;14.32;39.20
61113;BME280;47184;57.998;56.184;2022-10-16T11:34:06;101110.97;;;13.90;39.80
61113;BME280;47184;57.998;56.184;2022-10-16T11:39:24;101108.59;;;14.05;40.09
61113;BME280;47184;57.998;56.184;2022-10-16T11:42:10;101092.34;;;14.76;39.22
61113;BME280;47184;57.998;56.184;2022-10-16T11:47:40;101105.16;;;14.81;38.23
61113;BME280;47184;57.998;56.184;2022-10-16T11:53:07;101119.03;;;14.06;39.35
61113;BME280;47184;57.998;56.184;2022-10-16T11:55:40;101079.41;;;13.43;40.18
61113;BME280;47184;57.998;56.184;2022-10-16T11:58:15;101086.25;;;13.18;40.73
61113;BME280;47184;57.998;56.184;2022-10-16T12:01:05;101109.38;;;13.08;40.97
61113;BME280;47184;57.998;56.184;2022-10-16T12:06:57;101099.16;;;12.68;41.96
61113;BME280;47184;57.998;56.184;2022-10-16T12:09:26;101108.56;;;12.52;42.41
61113;BME280;47184;57.998;56.184;2022-10-16T12:11:56;101096.56;;;12.58;42.55
61113;BME280;47184;57.998;56.184;2022-10-16T12:14:40;101077.06;;;12.49;42.49
61113;BME280;47184;57.998;56.184;2022-10-16T12:17:35;101105.84;;;12.34;42.95
61113;BME280;47184;57.998;56.184;2022-10-16T12:20:27;101109.38;;;12.15;43.32
61113;BME280;47184;57.998;56.184;2022-10-16T12:23:19;101102.88;;;11.81;43.89
61113;BME280;47184;57.998;56.184;2022-10-16T12:25:55;101110.13;;;11.79;44.40
61113;BME280;47184;57.998;56.184;2022-10-16T12:28:34;101074.09;;;11.39;44.98
61113;BME280;47184;57.998;56.184;2022-10-16T12:31:11;101108.47;;;11.49;45.09
61113;BME280;47184;57.998;56.184;2022-10-16T12:34:14;101107.25;;;11.43;45.46
61113;BME280;47184;57.998;56.184;2022-10-16T12:36:44;101078.97;;;11.14;45.87
61113;BME280;47184;57.998;56.184;2022-10-16T12:39:23;101108.19;;;11.23;46.64
61113;BME280;47184;57.998;56.184;2022-10-16T12:42:04;101079.88;;;10.84;46.82
61113;BME280;47184;57.998;56.184;2022-10-16T12:44:35;101096.72;;;10.93;47.33
61113;BME280;47184;57.998;56.184;2022-10-16T12:47:02;101099.09;;;10.86;47.82
61113;BME280;47184;57.998;56.184;2022-10-16T12:49:47;101075.25;;;10.67;47.48
61113;BME280;47184;57.998;56.184;2022-10-16T12:52:50;101101.56;;;10.78;47.60
61113;BME280;47184;57.998;56.184;2022-10-16T12:55:22;101106.94;;;10.67;48.40
61113;BME280;47184;57.998;56.184;2022-10-16T12:58:15;101111.81;;;10.62;48.17
61113;BME280;47184;57.998;56.184;2022-10-16T13:04:27;101112.47;;;10.54;48.81
61113;BME280;47184;57.998;56.184;2022-10-16T13:07:31;101107.75;;;10.58;48.75
61113;BME280;47184;57.998;56.184;2022-10-16T13:10:21;101110.41;;;10.58;48.89
61113;BME280;47184;57.998;56.184;2022-10-16T13:16:10;101121.88;;;10.47;49.44
61113;BME280;47184;57.998;56.184;2022-10-16T13:27:56;101126.00;;;10.40;49.81
61113;BME280;47184;57.998;56.184;2022-10-16T13:30:43;101129.06;;;10.35;50.49
61113;BME280;47184;57.998;56.184;2022-10-16T13:33:17;101119.44;;;10.25;51.30
61113;BME280;47184;57.998;56.184;2022-10-16T13:35:54;101118.69;;;10.02;51.57
61113;BME280;47184;57.998;56.184;2022-10-16T13:38:29;101121.97;;;9.94;51.58
61113;BME280;47184;57.998;56.184;2022-10-16T13:41:00;101126.19;;;9.97;51.50
61113;BME280;47184;57.998;56.184;2022-10-16T13:43:28;101128.69;;;9.98;52.03
61113;BME280;47184;57.998;56.184;2022-10-16T13:46:04;101121.09;;;10.05;51.55
61113;BME280;47184;57.998;56.184;2022-10-16T13:48:31;101115.66;;;10.06;51.61
61113;BME280;47184;57.998;56.184;2022-10-16T13:51:19;101127.38;;;10.13;51.76
61113;BME280;47184;57.998;56.184;2022-10-16T13:54:12;101126.44;;;10.24;51.42
61113;BME280;47184;57.998;56.184;2022-10-16T13:56:47;101101.09;;;10.12;51.93
61113;BME280;47184;57.998;56.184;2022-10-16T13:59:27;101132.47;;;10.26;51.44
61113;BME280;47184;57.998;56.184;2022-10-16T14:01:59;101128.25;;;10.24;52.06
61113;BME280;47184;57.998;56.184;2022-10-16T14:04:32;101139.31;;;10.29;51.83
61113;BME280;47184;57.998;56.184;2022-10-16T14:06:59;101138.75;;;10.25;51.76
61113;BME280;47184;57.998;56.184;2022-10-16T14:09:31;101132.66;;;10.13;52.13
61113;BME280;47184;57.998;56.184;2022-10-16T14:12:03;101140.06;;;10.20;52.09
61113;BME280;47184;57.998;56.184;2022-10-16T14:14:42;101135.88;;;10.17;52.77
61113;BME280;47184;57.998;56.184;2022-10-16T14:17:18;101144.88;;;10.14;52.22
61113;BME280;47184;57.998;56.184;2022-10-16T14:19:46;101120.63;;;10.00;52.84
61113;BME280;47184;57.998;56.184;2022-10-16T14:22:29;101135.22;;;10.04;52.25
61113;BME280;47184;57.998;56.184;2022-10-16T14:24:56;101135.22;;;10.04;53.36
61113;BME280;47184;57.998;56.184;2022-10-16T14:27:34;101143.03;;;10.05;53.51
61113;BME280;47184;57.998;56.184;2022-10-16T14:30:20;101149.84;;;10.08;53.20
61113;BME280;47184;57.998;56.184;2022-10-16T14:35:35;101111.22;;;9.86;54.23
61113;BME280;47184;57.998;56.184;2022-10-16T14:38:03;101135.81;;;10.07;54.14